sensor_id;sensor_type;location;lat;lon;timestamp;P1;durP1;ratioP1;P2;durP2;ratioP2
62798;SDS011;48842;51.046;13.796;2024-02-26T00:01:19;20.50;;;15.67;;
62798;SDS011;48842;51.046;13.796;2024-02-26T00:03:44;18.50;;;15.40;;
62798;SDS011;48842;51.046;13.796;2024-02-26T00:06:12;19.60;;;15.23;;
62798;SDS011;48842;51.046;13.796;2024-02-26T00:08:37;21.17;;;15.70;;
62798;SDS011;48842;51.046;13.796;2024-02-26T00:11:02;19.70;;;14.50;;
62798;SDS011;48842;51.046;13.796;2024-02-26T00:13:29;19.30;;;14.30;;
62798;SDS011;48842;51.046;13.796;2024-02-26T00:15:54;19.13;;;14.80;;
62798;SDS011;48842;51.046;13.796;2024-02-26T00:18:20;19.90;;;13.13;;
62798;SDS011;48842;51.046;13.796;2024-02-26T00:20:45;20.90;;;14.83;;
62798;SDS011;48842;51.046;13.796;2024-02-26T00:23:10;21.13;;;15.27;;
62798;SDS011;48842;51.046;13.796;2024-02-26T00:25:35;21.30;;;14.47;;
62798;SDS011;48842;51.046;13.796;2024-02-26T00:28:02;21.87;;;14.90;;
62798;SDS011;48842;51.046;13.796;2024-02-26T00:30:28;20.47;;;14.33;;
62798;SDS011;48842;51.046;13.796;2024-02-26T00:32:53;17.60;;;13.40;;
62798;SDS011;48842;51.046;13.796;2024-02-26T00:35:18;22.47;;;14.70;;
62798;SDS011;48842;51.046;13.796;2024-02-26T00:37:45;18.80;;;14.50;;
62798;SDS011;48842;51.046;13.796;2024-02-26T00:40:10;23.70;;;13.97;;
62798;SDS011;48842;51.046;13.796;2024-02-26T00:42:36;21.00;;;13.77;;
62798;SDS011;48842;51.046;13.796;2024-02-26T00:45:01;17.77;;;13.97;;
62798;SDS011;48842;51.046;13.796;2024-02-26T00:47:26;16.13;;;13.20;;
62798;SDS011;48842;51.046;13.796;2024-02-26T00:49:51;16.87;;;12.90;;
62798;SDS011;48842;51.046;13.796;2024-02-26T00:52:17;21.20;;;14.10;;
62798;SDS011;48842;51.046;13.796;2024-02-26T00:54:42;19.77;;;14.30;;
62798;SDS011;48842;51.046;13.796;2024-02-26T00:57:07;18.27;;;13.73;;
62798;SDS011;48842;51.046;13.796;2024-02-26T00:59:32;19.70;;;13.90;;
62798;SDS011;48842;51.046;13.796;2024-02-26T01:01:58;20.70;;;14.67;;
62798;SDS011;48842;51.046;13.796;2024-02-26T01:04:24;18.33;;;12.80;;
62798;SDS011;48842;51.046;13.796;2024-02-26T01:06:50;17.73;;;14.37;;
62798;SDS011;48842;51.046;13.796;2024-02-26T01:09:15;21.80;;;14.03;;
62798;SDS011;48842;51.046;13.796;2024-02-26T01:11:42;21.93;;;14.90;;
62798;SDS011;48842;51.046;13.796;2024-02-26T01:14:07;19.47;;;14.50;;
62798;SDS011;48842;51.046;13.796;2024-02-26T01:16:32;19.03;;;14.03;;
62798;SDS011;48842;51.046;13.796;2024-02-26T01:18:57;22.10;;;15.73;;
62798;SDS011;48842;51.046;13.796;2024-02-26T01:21:23;20.33;;;14.37;;
62798;SDS011;48842;51.046;13.796;2024-02-26T01:23:48;23.47;;;15.40;;
62798;SDS011;48842;51.046;13.796;2024-02-26T01:26:13;20.80;;;14.13;;
62798;SDS011;48842;51.046;13.796;2024-02-26T01:28:38;23.13;;;14.30;;
62798;SDS011;48842;51.046;13.796;2024-02-26T01:31:04;20.67;;;14.50;;
62798;SDS011;48842;51.046;13.796;2024-02-26T01:33:31;19.50;;;15.43;;
62798;SDS011;48842;51.046;13.796;2024-02-26T01:35:57;17.60;;;14.40;;
62798;SDS011;48842;51.046;13.796;2024-02-26T01:38:22;18.97;;;15.27;;
62798;SDS011;48842;51.046;13.796;2024-02-26T01:40:47;21.37;;;13.67;;
62798;SDS011;48842;51.046;13.796;2024-02-26T01:43:12;17.73;;;15.00;;
62798;SDS011;48842;51.046;13.796;2024-02-26T01:45:38;24.70;;;16.80;;
62798;SDS011;48842;51.046;13.796;2024-02-26T01:48:03;22.47;;;15.40;;
62798;SDS011;48842;51.046;13.796;2024-02-26T01:50:28;20.20;;;15.30;;
62798;SDS011;48842;51.046;13.796;2024-02-26T01:52:54;20.53;;;15.10;;
62798;SDS011;48842;51.046;13.796;2024-02-26T01:55:20;20.80;;;14.30;;
62798;SDS011;48842;51.046;13.796;2024-02-26T01:57:48;21.00;;;14.40;;
62798;SDS011;48842;51.046;13.796;2024-02-26T02:00:16;19.30;;;14.90;;
62798;SDS011;48842;51.046;13.796;2024-02-26T02:02:43;19.87;;;15.60;;
62798;SDS011;48842;51.046;13.796;2024-02-26T02:05:11;21.13;;;15.33;;
62798;SDS011;48842;51.046;13.796;2024-02-26T02:07:37;21.10;;;14.47;;
62798;SDS011;48842;51.046;13.796;2024-02-26T02:10:03;22.80;;;15.80;;
62798;SDS011;48842;51.046;13.796;2024-02-26T02:12:28;19.47;;;14.80;;
62798;SDS011;48842;51.046;13.796;2024-02-26T02:14:54;21.03;;;15.47;;
62798;SDS011;48842;51.046;13.796;2024-02-26T02:17:20;19.40;;;15.27;;
62798;SDS011;48842;51.046;13.796;2024-02-26T02:19:45;19.87;;;15.83;;
62798;SDS011;48842;51.046;13.796;2024-02-26T02:22:11;16.70;;;13.10;;
62798;SDS011;48842;51.046;13.796;2024-02-26T02:24:36;18.90;;;14.97;;
62798;SDS011;48842;51.046;13.796;2024-02-26T02:27:01;21.90;;;14.60;;
62798;SDS011;48842;51.046;13.796;2024-02-26T02:29:27;19.80;;;14.43;;
62798;SDS011;48842;51.046;13.796;2024-02-26T02:31:53;20.63;;;14.30;;
62798;SDS011;48842;51.046;13.796;2024-02-26T02:34:18;21.00;;;15.97;;
62798;SDS011;48842;51.046;13.796;2024-02-26T02:37:02;20.90;;;16.07;;
62798;SDS011;48842;51.046;13.796;2024-02-26T02:39:27;32.63;;;15.07;;
62798;SDS011;48842;51.046;13.796;2024-02-26T02:41:53;17.70;;;14.87;;
62798;SDS011;48842;51.046;13.796;2024-02-26T02:44:18;21.67;;;15.80;;
62798;SDS011;48842;51.046;13.796;2024-02-26T02:46:43;19.93;;;14.43;;
62798;SDS011;48842;51.046;13.796;2024-02-26T02:49:09;18.03;;;14.90;;
62798;SDS011;48842;51.046;13.796;2024-02-26T02:51:35;20.83;;;14.07;;
62798;SDS011;48842;51.046;13.796;2024-02-26T02:54:00;24.50;;;15.47;;
62798;SDS011;48842;51.046;13.796;2024-02-26T02:56:26;20.63;;;15.43;;
62798;SDS011;48842;51.046;13.796;2024-02-26T02:58:51;18.23;;;14.53;;
62798;SDS011;48842;51.046;13.796;2024-02-26T03:01:16;19.13;;;15.17;;
62798;SDS011;48842;51.046;13.796;2024-02-26T03:03:42;19.70;;;14.20;;
62798;SDS011;48842;51.046;13.796;2024-02-26T03:06:07;21.63;;;14.73;;
62798;SDS011;48842;51.046;13.796;2024-02-26T03:08:32;18.97;;;15.97;;
62798;SDS011;48842;51.046;13.796;2024-02-26T03:11:00;21.70;;;15.30;;
62798;SDS011;48842;51.046;13.796;2024-02-26T03:13:26;17.30;;;14.50;;
62798;SDS011;48842;51.046;13.796;2024-02-26T03:15:51;20.47;;;15.60;;
62798;SDS011;48842;51.046;13.796;2024-02-26T03:18:16;21.03;;;16.00;;
62798;SDS011;48842;51.046;13.796;2024-02-26T03:20:41;23.90;;;16.23;;
62798;SDS011;48842;51.046;13.796;2024-02-26T03:23:07;20.40;;;14.73;;
62798;SDS011;48842;51.046;13.796;2024-02-26T03:25:34;20.20;;;14.43;;
62798;SDS011;48842;51.046;13.796;2024-02-26T03:28:00;20.00;;;14.30;;
62798;SDS011;48842;51.046;13.796;2024-02-26T03:30:25;20.63;;;15.60;;
62798;SDS011;48842;51.046;13.796;2024-02-26T03:32:50;20.33;;;14.40;;
62798;SDS011;48842;51.046;13.796;2024-02-26T03:35:15;21.97;;;16.30;;
62798;SDS011;48842;51.046;13.796;2024-02-26T03:37:41;21.30;;;14.60;;
62798;SDS011;48842;51.046;13.796;2024-02-26T03:40:06;20.57;;;15.40;;
62798;SDS011;48842;51.046;13.796;2024-02-26T03:42:32;19.30;;;15.20;;
62798;SDS011;48842;51.046;13.796;2024-02-26T03:44:57;20.53;;;14.40;;
62798;SDS011;48842;51.046;13.796;2024-02-26T03:47:22;21.67;;;15.40;;
62798;SDS011;48842;51.046;13.796;2024-02-26T03:49:48;20.40;;;14.20;;
62798;SDS011;48842;51.046;13.796;2024-02-26T03:52:13;19.20;;;15.40;;
62798;SDS011;48842;51.046;13.796;2024-02-26T03:54:39;25.47;;;15.63;;
62798;SDS011;48842;51.046;13.796;2024-02-26T03:57:05;19.03;;;14.37;;
62798;SDS011;48842;51.046;13.796;2024-02-26T03:59:30;19.73;;;14.70;;
62798;SDS011;48842;51.046;13.796;2024-02-26T04:01:55;19.73;;;14.60;;
62798;SDS011;48842;51.046;13.796;2024-02-26T04:04:20;21.70;;;14.53;;
62798;SDS011;48842;51.046;13.796;2024-02-26T04:06:46;22.43;;;15.20;;
62798;SDS011;48842;51.046;13.796;2024-02-26T04:09:13;23.13;;;14.87;;
62798;SDS011;48842;51.046;13.796;2024-02-26T04:11:39;20.93;;;13.77;;
62798;SDS011;48842;51.046;13.796;2024-02-26T04:14:04;20.67;;;15.80;;
62798;SDS011;48842;51.046;13.796;2024-02-26T04:16:33;22.00;;;14.33;;
62798;SDS011;48842;51.046;13.796;2024-02-26T04:18:58;20.17;;;15.67;;
62798;SDS011;48842;51.046;13.796;2024-02-26T04:21:23;23.37;;;15.80;;
62798;SDS011;48842;51.046;13.796;2024-02-26T04:23:49;27.27;;;15.63;;
62798;SDS011;48842;51.046;13.796;2024-02-26T04:26:14;19.90;;;13.53;;
62798;SDS011;48842;51.046;13.796;2024-02-26T04:28:39;21.70;;;15.40;;
62798;SDS011;48842;51.046;13.796;2024-02-26T04:31:04;22.87;;;15.70;;
62798;SDS011;48842;51.046;13.796;2024-02-26T04:33:30;20.40;;;15.20;;
62798;SDS011;48842;51.046;13.796;2024-02-26T04:35:55;22.67;;;14.63;;
62798;SDS011;48842;51.046;13.796;2024-02-26T04:38:20;20.40;;;14.67;;
62798;SDS011;48842;51.046;13.796;2024-02-26T04:40:47;19.13;;;14.10;;
62798;SDS011;48842;51.046;13.796;2024-02-26T04:43:12;21.40;;;13.90;;
62798;SDS011;48842;51.046;13.796;2024-02-26T04:45:38;20.90;;;15.40;;
62798;SDS011;48842;51.046;13.796;2024-02-26T04:48:03;20.77;;;15.30;;
62798;SDS011;48842;51.046;13.796;2024-02-26T04:50:28;20.07;;;13.97;;
62798;SDS011;48842;51.046;13.796;2024-02-26T04:52:54;18.37;;;13.87;;
62798;SDS011;48842;51.046;13.796;2024-02-26T04:55:19;22.20;;;15.43;;
62798;SDS011;48842;51.046;13.796;2024-02-26T04:57:44;21.63;;;14.53;;
62798;SDS011;48842;51.046;13.796;2024-02-26T05:00:10;18.20;;;14.53;;
62798;SDS011;48842;51.046;13.796;2024-02-26T05:02:35;26.07;;;17.13;;
62798;SDS011;48842;51.046;13.796;2024-02-26T05:05:04;18.83;;;14.33;;
62798;SDS011;48842;51.046;13.796;2024-02-26T05:07:30;28.33;;;16.20;;
62798;SDS011;48842;51.046;13.796;2024-02-26T05:09:55;22.80;;;15.33;;
62798;SDS011;48842;51.046;13.796;2024-02-26T05:12:20;22.13;;;14.80;;
62798;SDS011;48842;51.046;13.796;2024-02-26T05:14:46;30.23;;;15.73;;
62798;SDS011;48842;51.046;13.796;2024-02-26T05:17:11;19.77;;;15.70;;
62798;SDS011;48842;51.046;13.796;2024-02-26T05:19:36;19.80;;;15.27;;
62798;SDS011;48842;51.046;13.796;2024-02-26T05:22:01;17.40;;;13.90;;
62798;SDS011;48842;51.046;13.796;2024-02-26T05:24:27;19.87;;;14.40;;
62798;SDS011;48842;51.046;13.796;2024-02-26T05:26:53;18.87;;;14.77;;
62798;SDS011;48842;51.046;13.796;2024-02-26T05:29:20;19.83;;;15.03;;
62798;SDS011;48842;51.046;13.796;2024-02-26T05:31:45;20.63;;;14.20;;
62798;SDS011;48842;51.046;13.796;2024-02-26T05:34:10;19.70;;;15.27;;
62798;SDS011;48842;51.046;13.796;2024-02-26T05:36:35;19.90;;;14.50;;
62798;SDS011;48842;51.046;13.796;2024-02-26T05:39:01;19.17;;;13.97;;
62798;SDS011;48842;51.046;13.796;2024-02-26T05:41:28;21.00;;;14.10;;
62798;SDS011;48842;51.046;13.796;2024-02-26T05:43:54;21.03;;;14.60;;
62798;SDS011;48842;51.046;13.796;2024-02-26T05:46:20;19.50;;;15.20;;
62798;SDS011;48842;51.046;13.796;2024-02-26T05:48:52;18.87;;;14.93;;
62798;SDS011;48842;51.046;13.796;2024-02-26T05:51:17;17.73;;;12.97;;
62798;SDS011;48842;51.046;13.796;2024-02-26T05:53:43;19.50;;;14.63;;
62798;SDS011;48842;51.046;13.796;2024-02-26T05:56:08;17.10;;;13.63;;
62798;SDS011;48842;51.046;13.796;2024-02-26T05:58:34;21.00;;;15.90;;
62798;SDS011;48842;51.046;13.796;2024-02-26T06:00:59;22.47;;;15.13;;
62798;SDS011;48842;51.046;13.796;2024-02-26T06:03:27;19.63;;;14.40;;
62798;SDS011;48842;51.046;13.796;2024-02-26T06:05:52;20.80;;;14.73;;
62798;SDS011;48842;51.046;13.796;2024-02-26T06:08:18;26.33;;;15.43;;
62798;SDS011;48842;51.046;13.796;2024-02-26T06:10:43;20.40;;;15.03;;
62798;SDS011;48842;51.046;13.796;2024-02-26T06:13:09;19.77;;;14.43;;
62798;SDS011;48842;51.046;13.796;2024-02-26T06:15:34;21.90;;;14.77;;
62798;SDS011;48842;51.046;13.796;2024-02-26T06:17:59;25.00;;;15.50;;
62798;SDS011;48842;51.046;13.796;2024-02-26T06:20:25;21.00;;;15.03;;
62798;SDS011;48842;51.046;13.796;2024-02-26T06:22:50;21.50;;;15.00;;
62798;SDS011;48842;51.046;13.796;2024-02-26T06:25:16;21.93;;;14.70;;
62798;SDS011;48842;51.046;13.796;2024-02-26T06:27:41;24.33;;;15.30;;
62798;SDS011;48842;51.046;13.796;2024-02-26T06:30:06;21.57;;;14.67;;
62798;SDS011;48842;51.046;13.796;2024-02-26T06:32:33;21.57;;;15.73;;
62798;SDS011;48842;51.046;13.796;2024-02-26T06:34:58;19.27;;;15.30;;
62798;SDS011;48842;51.046;13.796;2024-02-26T06:37:24;19.17;;;13.70;;
62798;SDS011;48842;51.046;13.796;2024-02-26T06:39:50;21.53;;;15.67;;
62798;SDS011;48842;51.046;13.796;2024-02-26T06:42:17;19.60;;;14.80;;
62798;SDS011;48842;51.046;13.796;2024-02-26T06:44:42;22.80;;;15.33;;
62798;SDS011;48842;51.046;13.796;2024-02-26T06:47:07;19.33;;;14.47;;
62798;SDS011;48842;51.046;13.796;2024-02-26T06:49:33;18.07;;;14.20;;
62798;SDS011;48842;51.046;13.796;2024-02-26T06:51:58;21.07;;;14.00;;
62798;SDS011;48842;51.046;13.796;2024-02-26T06:54:23;24.17;;;15.00;;
62798;SDS011;48842;51.046;13.796;2024-02-26T06:56:48;24.97;;;14.40;;
62798;SDS011;48842;51.046;13.796;2024-02-26T06:59:14;19.20;;;13.60;;
62798;SDS011;48842;51.046;13.796;2024-02-26T07:01:42;20.37;;;14.63;;
62798;SDS011;48842;51.046;13.796;2024-02-26T07:04:07;22.47;;;14.80;;
62798;SDS011;48842;51.046;13.796;2024-02-26T07:06:32;20.17;;;14.03;;
62798;SDS011;48842;51.046;13.796;2024-02-26T07:08:58;17.67;;;12.50;;
62798;SDS011;48842;51.046;13.796;2024-02-26T07:11:23;17.30;;;13.30;;
62798;SDS011;48842;51.046;13.796;2024-02-26T07:13:48;18.03;;;14.03;;
62798;SDS011;48842;51.046;13.796;2024-02-26T07:16:17;21.80;;;13.87;;
62798;SDS011;48842;51.046;13.796;2024-02-26T07:18:42;18.77;;;12.73;;
62798;SDS011;48842;51.046;13.796;2024-02-26T07:21:13;21.77;;;12.87;;
62798;SDS011;48842;51.046;13.796;2024-02-26T07:23:39;19.23;;;13.67;;
62798;SDS011;48842;51.046;13.796;2024-02-26T07:26:04;24.67;;;11.90;;
62798;SDS011;48842;51.046;13.796;2024-02-26T07:28:29;18.87;;;13.30;;
62798;SDS011;48842;51.046;13.796;2024-02-26T07:30:54;20.70;;;14.13;;
62798;SDS011;48842;51.046;13.796;2024-02-26T07:33:20;22.77;;;14.30;;
62798;SDS011;48842;51.046;13.796;2024-02-26T07:35:46;20.63;;;13.10;;
62798;SDS011;48842;51.046;13.796;2024-02-26T07:38:11;21.93;;;13.20;;
62798;SDS011;48842;51.046;13.796;2024-02-26T07:40:38;21.13;;;12.53;;
62798;SDS011;48842;51.046;13.796;2024-02-26T07:43:03;20.70;;;12.03;;
62798;SDS011;48842;51.046;13.796;2024-02-26T07:45:29;45.07;;;13.30;;
62798;SDS011;48842;51.046;13.796;2024-02-26T07:47:54;17.90;;;13.13;;
62798;SDS011;48842;51.046;13.796;2024-02-26T07:50:19;19.00;;;10.90;;
62798;SDS011;48842;51.046;13.796;2024-02-26T07:52:44;18.60;;;10.77;;
62798;SDS011;48842;51.046;13.796;2024-02-26T07:55:10;14.90;;;11.43;;
62798;SDS011;48842;51.046;13.796;2024-02-26T07:57:35;14.07;;;11.10;;
62798;SDS011;48842;51.046;13.796;2024-02-26T08:00:02;16.30;;;11.03;;
62798;SDS011;48842;51.046;13.796;2024-02-26T08:02:28;20.23;;;11.83;;
62798;SDS011;48842;51.046;13.796;2024-02-26T08:04:53;14.67;;;10.80;;
62798;SDS011;48842;51.046;13.796;2024-02-26T08:07:18;11.87;;;9.63;;
62798;SDS011;48842;51.046;13.796;2024-02-26T08:09:45;17.73;;;10.60;;
62798;SDS011;48842;51.046;13.796;2024-02-26T08:12:11;11.40;;;10.17;;
62798;SDS011;48842;51.046;13.796;2024-02-26T08:14:36;16.53;;;10.97;;
62798;SDS011;48842;51.046;13.796;2024-02-26T08:17:01;16.90;;;10.83;;
62798;SDS011;48842;51.046;13.796;2024-02-26T08:19:28;21.27;;;10.13;;
62798;SDS011;48842;51.046;13.796;2024-02-26T08:21:53;15.57;;;9.60;;
62798;SDS011;48842;51.046;13.796;2024-02-26T08:24:19;14.03;;;9.33;;
62798;SDS011;48842;51.046;13.796;2024-02-26T08:26:45;16.73;;;10.33;;
62798;SDS011;48842;51.046;13.796;2024-02-26T08:29:10;15.43;;;9.33;;
62798;SDS011;48842;51.046;13.796;2024-02-26T08:31:35;10.50;;;8.33;;
62798;SDS011;48842;51.046;13.796;2024-02-26T08:34:02;15.07;;;9.67;;
62798;SDS011;48842;51.046;13.796;2024-02-26T08:36:31;24.80;;;9.40;;
62798;SDS011;48842;51.046;13.796;2024-02-26T08:38:58;14.43;;;9.00;;
62798;SDS011;48842;51.046;13.796;2024-02-26T08:41:23;12.53;;;8.93;;
62798;SDS011;48842;51.046;13.796;2024-02-26T08:43:49;13.20;;;9.60;;
62798;SDS011;48842;51.046;13.796;2024-02-26T08:46:14;12.97;;;9.23;;
62798;SDS011;48842;51.046;13.796;2024-02-26T08:48:39;14.47;;;10.50;;
62798;SDS011;48842;51.046;13.796;2024-02-26T08:51:08;16.70;;;9.50;;
62798;SDS011;48842;51.046;13.796;2024-02-26T08:53:34;14.97;;;9.80;;
62798;SDS011;48842;51.046;13.796;2024-02-26T08:56:00;10.87;;;8.80;;
62798;SDS011;48842;51.046;13.796;2024-02-26T08:58:26;18.00;;;9.27;;
62798;SDS011;48842;51.046;13.796;2024-02-26T09:00:52;14.63;;;9.17;;
62798;SDS011;48842;51.046;13.796;2024-02-26T09:03:17;13.07;;;9.30;;
62798;SDS011;48842;51.046;13.796;2024-02-26T09:05:43;12.53;;;10.20;;
62798;SDS011;48842;51.046;13.796;2024-02-26T09:08:08;14.07;;;9.07;;
62798;SDS011;48842;51.046;13.796;2024-02-26T09:10:33;17.00;;;9.67;;
62798;SDS011;48842;51.046;13.796;2024-02-26T09:12:59;11.67;;;8.53;;
62798;SDS011;48842;51.046;13.796;2024-02-26T09:15:24;25.23;;;10.53;;
62798;SDS011;48842;51.046;13.796;2024-02-26T09:17:49;13.53;;;10.97;;
62798;SDS011;48842;51.046;13.796;2024-02-26T09:20:15;16.50;;;9.27;;
62798;SDS011;48842;51.046;13.796;2024-02-26T09:22:44;17.70;;;9.20;;
62798;SDS011;48842;51.046;13.796;2024-02-26T09:25:10;13.63;;;8.60;;
62798;SDS011;48842;51.046;13.796;2024-02-26T09:27:35;13.70;;;9.33;;
62798;SDS011;48842;51.046;13.796;2024-02-26T09:30:00;14.80;;;9.70;;
62798;SDS011;48842;51.046;13.796;2024-02-26T09:32:25;14.33;;;9.33;;
62798;SDS011;48842;51.046;13.796;2024-02-26T09:34:51;15.47;;;9.90;;
62798;SDS011;48842;51.046;13.796;2024-02-26T09:37:16;11.27;;;9.13;;
62798;SDS011;48842;51.046;13.796;2024-02-26T09:39:41;13.63;;;9.37;;
62798;SDS011;48842;51.046;13.796;2024-02-26T09:42:07;12.83;;;10.70;;
62798;SDS011;48842;51.046;13.796;2024-02-26T09:44:35;11.73;;;9.47;;
62798;SDS011;48842;51.046;13.796;2024-02-26T09:47:03;9.80;;;8.57;;
62798;SDS011;48842;51.046;13.796;2024-02-26T09:49:30;15.27;;;9.93;;
62798;SDS011;48842;51.046;13.796;2024-02-26T09:51:56;12.90;;;10.57;;
62798;SDS011;48842;51.046;13.796;2024-02-26T09:54:23;15.13;;;9.07;;
62798;SDS011;48842;51.046;13.796;2024-02-26T09:56:51;11.77;;;9.80;;
62798;SDS011;48842;51.046;13.796;2024-02-26T09:59:18;12.77;;;8.60;;
62798;SDS011;48842;51.046;13.796;2024-02-26T10:01:44;15.43;;;9.23;;
62798;SDS011;48842;51.046;13.796;2024-02-26T10:04:11;18.27;;;9.97;;
62798;SDS011;48842;51.046;13.796;2024-02-26T10:06:37;15.43;;;9.67;;
62798;SDS011;48842;51.046;13.796;2024-02-26T10:09:03;14.77;;;8.10;;
62798;SDS011;48842;51.046;13.796;2024-02-26T10:11:31;13.70;;;9.03;;
62798;SDS011;48842;51.046;13.796;2024-02-26T10:13:57;11.53;;;8.43;;
62798;SDS011;48842;51.046;13.796;2024-02-26T10:16:22;13.63;;;8.97;;
62798;SDS011;48842;51.046;13.796;2024-02-26T10:18:51;11.67;;;9.00;;
62798;SDS011;48842;51.046;13.796;2024-02-26T10:21:19;10.40;;;8.57;;
62798;SDS011;48842;51.046;13.796;2024-02-26T10:23:45;12.03;;;8.53;;
62798;SDS011;48842;51.046;13.796;2024-02-26T10:26:12;14.53;;;9.30;;
62798;SDS011;48842;51.046;13.796;2024-02-26T10:28:39;11.40;;;8.57;;
62798;SDS011;48842;51.046;13.796;2024-02-26T10:31:05;11.20;;;9.03;;
62798;SDS011;48842;51.046;13.796;2024-02-26T10:33:32;10.87;;;7.93;;
62798;SDS011;48842;51.046;13.796;2024-02-26T10:36:00;12.37;;;8.80;;
62798;SDS011;48842;51.046;13.796;2024-02-26T10:38:25;9.57;;;8.13;;
62798;SDS011;48842;51.046;13.796;2024-02-26T10:40:51;11.03;;;7.90;;
62798;SDS011;48842;51.046;13.796;2024-02-26T10:43:16;13.10;;;8.47;;
62798;SDS011;48842;51.046;13.796;2024-02-26T10:45:43;11.43;;;8.23;;
62798;SDS011;48842;51.046;13.796;2024-02-26T10:48:09;11.70;;;8.47;;
62798;SDS011;48842;51.046;13.796;2024-02-26T10:50:36;9.27;;;7.73;;
62798;SDS011;48842;51.046;13.796;2024-02-26T10:53:03;19.87;;;8.87;;
62798;SDS011;48842;51.046;13.796;2024-02-26T10:55:32;9.20;;;7.90;;
62798;SDS011;48842;51.046;13.796;2024-02-26T10:58:00;11.63;;;8.20;;
62798;SDS011;48842;51.046;13.796;2024-02-26T11:00:26;8.47;;;7.57;;
62798;SDS011;48842;51.046;13.796;2024-02-26T11:02:53;10.03;;;8.07;;
62798;SDS011;48842;51.046;13.796;2024-02-26T11:05:19;13.00;;;7.60;;
62798;SDS011;48842;51.046;13.796;2024-02-26T11:07:46;10.90;;;8.03;;
62798;SDS011;48842;51.046;13.796;2024-02-26T11:10:13;9.83;;;7.47;;
62798;SDS011;48842;51.046;13.796;2024-02-26T11:12:40;10.80;;;7.47;;
62798;SDS011;48842;51.046;13.796;2024-02-26T11:15:07;11.93;;;7.70;;
62798;SDS011;48842;51.046;13.796;2024-02-26T11:17:33;9.67;;;7.43;;
62798;SDS011;48842;51.046;13.796;2024-02-26T11:20:00;9.67;;;7.90;;
62798;SDS011;48842;51.046;13.796;2024-02-26T11:22:27;10.90;;;7.87;;
62798;SDS011;48842;51.046;13.796;2024-02-26T11:24:54;8.97;;;7.73;;
62798;SDS011;48842;51.046;13.796;2024-02-26T11:27:23;12.23;;;8.40;;
62798;SDS011;48842;51.046;13.796;2024-02-26T11:29:55;11.73;;;8.03;;
62798;SDS011;48842;51.046;13.796;2024-02-26T11:32:24;9.77;;;7.93;;
62798;SDS011;48842;51.046;13.796;2024-02-26T11:34:51;8.13;;;7.03;;
62798;SDS011;48842;51.046;13.796;2024-02-26T11:37:18;9.00;;;7.20;;
62798;SDS011;48842;51.046;13.796;2024-02-26T11:39:45;9.13;;;7.70;;
62798;SDS011;48842;51.046;13.796;2024-02-26T11:42:13;11.23;;;8.17;;
62798;SDS011;48842;51.046;13.796;2024-02-26T11:44:39;11.17;;;8.70;;
62798;SDS011;48842;51.046;13.796;2024-02-26T11:47:13;9.33;;;7.80;;
62798;SDS011;48842;51.046;13.796;2024-02-26T11:49:42;11.93;;;8.00;;
62798;SDS011;48842;51.046;13.796;2024-02-26T11:52:08;9.70;;;7.37;;
62798;SDS011;48842;51.046;13.796;2024-02-26T11:54:44;10.00;;;7.03;;
62798;SDS011;48842;51.046;13.796;2024-02-26T11:57:21;10.07;;;7.43;;
62798;SDS011;48842;51.046;13.796;2024-02-26T11:59:50;9.37;;;7.30;;
62798;SDS011;48842;51.046;13.796;2024-02-26T12:05:11;7.70;;;7.00;;
62798;SDS011;48842;51.046;13.796;2024-02-26T12:07:39;8.97;;;8.03;;
62798;SDS011;48842;51.046;13.796;2024-02-26T12:10:17;8.33;;;7.43;;
62798;SDS011;48842;51.046;13.796;2024-02-26T12:12:50;12.30;;;7.50;;
62798;SDS011;48842;51.046;13.796;2024-02-26T12:15:18;9.20;;;7.67;;
62798;SDS011;48842;51.046;13.796;2024-02-26T12:17:47;9.83;;;7.83;;
62798;SDS011;48842;51.046;13.796;2024-02-26T12:20:13;12.20;;;8.13;;
62798;SDS011;48842;51.046;13.796;2024-02-26T12:22:41;9.83;;;7.23;;
62798;SDS011;48842;51.046;13.796;2024-02-26T12:25:10;9.43;;;7.50;;
62798;SDS011;48842;51.046;13.796;2024-02-26T12:27:35;8.50;;;7.20;;
62798;SDS011;48842;51.046;13.796;2024-02-26T12:30:01;7.60;;;6.57;;
62798;SDS011;48842;51.046;13.796;2024-02-26T12:32:28;9.37;;;7.40;;
62798;SDS011;48842;51.046;13.796;2024-02-26T12:34:53;16.60;;;7.97;;
62798;SDS011;48842;51.046;13.796;2024-02-26T12:37:18;9.43;;;7.37;;
62798;SDS011;48842;51.046;13.796;2024-02-26T12:39:44;8.30;;;6.87;;
62798;SDS011;48842;51.046;13.796;2024-02-26T12:42:10;14.60;;;7.47;;
62798;SDS011;48842;51.046;13.796;2024-02-26T12:44:36;10.30;;;7.23;;
62798;SDS011;48842;51.046;13.796;2024-02-26T12:47:02;8.60;;;7.53;;
62798;SDS011;48842;51.046;13.796;2024-02-26T12:49:28;10.47;;;7.53;;
62798;SDS011;48842;51.046;13.796;2024-02-26T12:51:54;8.50;;;7.20;;
62798;SDS011;48842;51.046;13.796;2024-02-26T12:54:26;7.13;;;6.37;;
62798;SDS011;48842;51.046;13.796;2024-02-26T12:56:51;8.43;;;7.23;;
62798;SDS011;48842;51.046;13.796;2024-02-26T12:59:17;9.90;;;7.50;;
62798;SDS011;48842;51.046;13.796;2024-02-26T13:01:42;7.90;;;6.90;;
62798;SDS011;48842;51.046;13.796;2024-02-26T13:04:07;8.40;;;7.43;;
62798;SDS011;48842;51.046;13.796;2024-02-26T13:06:33;15.57;;;7.17;;
62798;SDS011;48842;51.046;13.796;2024-02-26T13:09:00;9.23;;;7.63;;
62798;SDS011;48842;51.046;13.796;2024-02-26T13:11:26;11.60;;;6.93;;
62798;SDS011;48842;51.046;13.796;2024-02-26T13:13:53;10.57;;;6.57;;
62798;SDS011;48842;51.046;13.796;2024-02-26T13:16:19;8.00;;;7.20;;
62798;SDS011;48842;51.046;13.796;2024-02-26T13:18:46;9.20;;;6.57;;
62798;SDS011;48842;51.046;13.796;2024-02-26T13:21:12;8.77;;;5.87;;
62798;SDS011;48842;51.046;13.796;2024-02-26T13:23:40;7.73;;;6.73;;
62798;SDS011;48842;51.046;13.796;2024-02-26T13:26:06;7.53;;;6.47;;
62798;SDS011;48842;51.046;13.796;2024-02-26T13:28:33;9.50;;;6.37;;
62798;SDS011;48842;51.046;13.796;2024-02-26T13:30:59;6.80;;;6.13;;
62798;SDS011;48842;51.046;13.796;2024-02-26T13:33:26;9.70;;;7.50;;
62798;SDS011;48842;51.046;13.796;2024-02-26T13:35:53;11.23;;;6.87;;
62798;SDS011;48842;51.046;13.796;2024-02-26T13:38:19;8.50;;;6.33;;
62798;SDS011;48842;51.046;13.796;2024-02-26T13:40:45;8.00;;;5.00;;
62798;SDS011;48842;51.046;13.796;2024-02-26T13:43:10;9.83;;;6.67;;
62798;SDS011;48842;51.046;13.796;2024-02-26T13:45:36;6.73;;;5.50;;
62798;SDS011;48842;51.046;13.796;2024-02-26T13:48:03;7.30;;;5.50;;
62798;SDS011;48842;51.046;13.796;2024-02-26T13:50:31;12.17;;;6.37;;
62798;SDS011;48842;51.046;13.796;2024-02-26T13:52:57;8.57;;;6.27;;
62798;SDS011;48842;51.046;13.796;2024-02-26T13:55:23;7.77;;;5.83;;
62798;SDS011;48842;51.046;13.796;2024-02-26T13:57:51;9.20;;;7.00;;
62798;SDS011;48842;51.046;13.796;2024-02-26T14:00:20;6.63;;;5.90;;
62798;SDS011;48842;51.046;13.796;2024-02-26T14:02:45;9.40;;;7.10;;
62798;SDS011;48842;51.046;13.796;2024-02-26T14:05:11;8.77;;;6.90;;
62798;SDS011;48842;51.046;13.796;2024-02-26T14:07:36;8.60;;;7.67;;
62798;SDS011;48842;51.046;13.796;2024-02-26T14:10:02;10.40;;;6.70;;
62798;SDS011;48842;51.046;13.796;2024-02-26T14:12:27;8.47;;;7.40;;